createdAt,value
2023-03-14T00:01:28.325Z,20.52
2023-03-14T00:05:28.304Z,20.51
2023-03-14T00:09:28.270Z,20.51
2023-03-14T00:13:28.205Z,20.52
2023-03-14T00:17:28.204Z,20.52
2023-03-14T00:21:28.143Z,20.55
2023-03-14T00:25:28.124Z,20.52
2023-03-14T00:29:28.093Z,20.55
2023-03-14T00:33:28.038Z,20.54
2023-03-14T00:37:27.997Z,20.55
2023-03-14T00:41:28.007Z,20.59
2023-03-14T00:45:27.927Z,20.55
2023-03-14T00:49:27.895Z,20.57
2023-03-14T00:53:27.871Z,20.54
2023-03-14T00:57:27.842Z,20.55
2023-03-14T01:01:27.924Z,20.57
2023-03-14T01:05:28.081Z,20.61
2023-03-14T01:09:28.197Z,20.61
2023-03-14T01:13:28.327Z,20.61
2023-03-14T01:17:28.430Z,20.63
2023-03-14T01:21:28.464Z,20.60
2023-03-14T01:25:28.535Z,20.64
2023-03-14T01:29:28.554Z,20.63
2023-03-14T01:33:28.599Z,20.72
2023-03-14T01:37:28.681Z,20.69
2023-03-14T01:41:28.724Z,20.70
2023-03-14T01:45:28.850Z,20.70
2023-03-14T01:49:28.980Z,20.70
2023-03-14T01:53:29.057Z,20.73
2023-03-14T01:57:29.269Z,20.73
2023-03-14T02:01:29.209Z,20.72
2023-03-14T02:05:29.176Z,20.79
2023-03-14T02:09:29.117Z,20.75
2023-03-14T02:13:29.107Z,20.76
2023-03-14T02:17:29.052Z,20.78
2023-03-14T02:21:29.036Z,20.79
2023-03-14T02:25:28.997Z,20.78
2023-03-14T02:29:28.973Z,20.81
2023-03-14T02:33:28.902Z,20.87
2023-03-14T02:37:28.874Z,20.90
2023-03-14T02:41:28.912Z,20.88
2023-03-14T02:45:28.814Z,20.87
2023-03-14T02:49:29.024Z,20.85
2023-03-14T02:53:28.956Z,20.94
2023-03-14T02:57:28.922Z,20.93
2023-03-14T03:01:28.931Z,20.94
2023-03-14T03:05:28.858Z,20.94
2023-03-14T03:09:28.826Z,20.97
2023-03-14T03:13:29.103Z,21.00
2023-03-14T03:17:28.758Z,21.06
2023-03-14T03:21:28.744Z,21.19
2023-03-14T03:25:28.705Z,21.32
2023-03-14T03:29:28.658Z,21.40
2023-03-14T03:33:28.619Z,21.46
2023-03-14T03:37:28.581Z,21.59
2023-03-14T03:41:28.603Z,21.71
2023-03-14T03:45:28.531Z,21.87
2023-03-14T03:49:28.505Z,21.85
2023-03-14T03:53:33.640Z,21.99
2023-03-14T03:57:29.454Z,22.07
2023-03-14T04:01:28.386Z,22.17
2023-03-14T04:05:28.498Z,22.27
2023-03-14T04:09:28.480Z,22.32
2023-03-14T04:13:28.591Z,22.44
2023-03-14T04:17:28.431Z,22.47
2023-03-14T04:21:28.413Z,22.56
2023-03-14T04:25:28.421Z,22.65
2023-03-14T04:29:28.297Z,22.68
2023-03-14T04:33:28.264Z,22.74
2023-03-14T04:37:28.239Z,22.80
2023-03-14T04:41:28.196Z,22.88
2023-03-14T04:45:28.189Z,22.91
2023-03-14T04:49:28.130Z,22.98
2023-03-14T04:53:28.185Z,23.07
2023-03-14T04:57:28.130Z,23.12
2023-03-14T05:01:28.127Z,23.16
2023-03-14T05:05:28.059Z,23.15
2023-03-14T05:09:28.010Z,23.26
2023-03-14T05:13:27.999Z,23.30
2023-03-14T05:17:27.972Z,23.26
2023-03-14T05:21:27.923Z,23.36
2023-03-14T05:25:27.873Z,23.33
2023-03-14T05:29:27.861Z,23.43
2023-03-14T05:33:27.812Z,23.43
2023-03-14T05:37:27.790Z,23.46
2023-03-14T05:41:27.879Z,23.46
2023-03-14T05:45:27.777Z,23.50
2023-03-14T05:49:27.699Z,23.57
2023-03-14T05:53:27.645Z,23.57
2023-03-14T05:57:27.603Z,23.61
2023-03-14T06:01:27.579Z,23.58
2023-03-14T06:05:27.842Z,23.63
2023-03-14T06:09:27.937Z,23.65
2023-03-14T06:26:32.970Z,23.53
2023-03-14T06:30:24.948Z,25.31
2023-03-14T06:34:25.458Z,26.23
2023-03-14T06:38:25.025Z,29.07
2023-03-14T06:42:25.313Z,29.19
2023-03-14T06:46:25.361Z,29.23
2023-03-14T06:50:25.151Z,29.43
2023-03-14T06:54:25.195Z,30.38
2023-03-14T06:58:25.289Z,30.51
2023-03-14T07:02:39.850Z,31.21
2023-03-14T07:06:26.292Z,31.28
2023-03-14T07:10:25.242Z,31.48
2023-03-14T07:27:22.170Z,32.17
2023-03-14T07:31:22.264Z,32.11
2023-03-14T07:35:22.100Z,31.27
2023-03-14T07:39:22.373Z,31.16
2023-03-14T07:43:22.008Z,31.20
2023-03-14T07:47:21.960Z,31.34
2023-03-14T07:51:21.935Z,31.62
2023-03-14T07:55:22.392Z,31.87
2023-03-14T07:59:21.920Z,31.92
2023-03-14T08:03:21.819Z,31.77
2023-03-14T08:07:21.781Z,31.89
2023-03-14T08:11:21.753Z,31.93
2023-03-14T08:15:21.753Z,32.05
2023-03-14T08:19:21.683Z,32.11
2023-03-14T08:23:21.901Z,31.77
2023-03-14T08:27:21.661Z,31.52
2023-03-14T08:31:22.171Z,30.69
2023-03-14T08:35:21.721Z,30.21
2023-03-14T08:39:21.859Z,29.22
2023-03-14T08:43:21.937Z,28.64
2023-03-14T08:47:22.392Z,27.16
2023-03-14T08:51:22.380Z,27.13
2023-03-14T08:55:22.447Z,26.89
2023-03-14T08:59:22.601Z,26.85
2023-03-14T09:03:22.643Z,26.70
2023-03-14T09:07:22.818Z,26.60
2023-03-14T09:11:22.968Z,26.37
2023-03-14T09:15:23.056Z,26.11
2023-03-14T09:19:23.829Z,26.15
2023-03-14T09:23:23.131Z,27.51
2023-03-14T09:27:23.415Z,27.62
2023-03-14T09:31:23.383Z,28.49
2023-03-14T09:35:23.589Z,29.34
2023-03-14T09:39:23.946Z,29.88
2023-03-14T09:43:23.585Z,29.70
2023-03-14T09:47:23.799Z,29.52
2023-03-14T09:51:23.921Z,29.24
2023-03-14T09:55:23.980Z,28.92
2023-03-14T09:59:24.017Z,28.35
2023-03-14T10:03:24.497Z,28.10
2023-03-14T10:07:24.927Z,27.77
2023-03-14T10:11:24.423Z,27.41
2023-03-14T10:15:24.267Z,27.04
2023-03-14T10:19:24.449Z,26.70
2023-03-14T10:23:24.544Z,26.40
2023-03-14T10:27:24.941Z,26.33
2023-03-14T10:31:24.926Z,26.43
2023-03-14T10:35:24.678Z,25.54
2023-03-14T10:39:24.775Z,25.14
2023-03-14T10:43:24.839Z,25.20
2023-03-14T10:47:24.996Z,25.28
2023-03-14T10:51:25.456Z,25.32
2023-03-14T10:55:25.052Z,25.24
2023-03-14T10:59:24.968Z,25.28
2023-03-14T11:03:25.420Z,25.38
2023-03-14T11:07:24.952Z,25.22
2023-03-14T11:11:25.045Z,25.08
2023-03-14T11:15:24.828Z,25.11
2023-03-14T11:19:24.820Z,25.02
2023-03-14T11:23:25.037Z,25.76
2023-03-14T11:27:25.802Z,25.50
2023-03-14T11:31:25.149Z,26.00
2023-03-14T11:35:24.690Z,26.20
2023-03-14T11:39:24.676Z,25.63
2023-03-14T11:43:24.594Z,25.54
2023-03-14T11:47:24.561Z,25.72
2023-03-14T11:51:24.597Z,25.80
2023-03-14T11:55:24.588Z,26.07
2023-03-14T11:59:24.629Z,27.02
2023-03-14T12:03:24.493Z,27.23
2023-03-14T12:07:24.467Z,28.00
2023-03-14T12:11:24.489Z,28.34
2023-03-14T12:15:24.514Z,28.36
2023-03-14T12:23:43.726Z,28.57
2023-03-14T12:32:02.366Z,29.17
2023-03-14T12:36:02.439Z,29.66
2023-03-14T12:40:02.437Z,30.05
2023-03-14T12:44:02.613Z,30.08
2023-03-14T12:48:02.651Z,30.05
2023-03-14T12:52:02.828Z,29.89
2023-03-14T12:56:03.004Z,29.55
2023-03-14T13:00:03.076Z,29.25
2023-03-14T13:04:03.312Z,29.11
2023-03-14T13:08:03.378Z,28.79
2023-03-14T13:12:04.031Z,28.52
2023-03-14T13:16:03.987Z,28.33
